createdAt,value
2017-04-23T09:32:37.481Z,22.18
2017-04-23T09:33:18.333Z,22.27
2017-04-23T09:33:59.094Z,22.52
2017-04-23T09:34:39.884Z,22.64
2017-04-23T09:35:20.642Z,22.67
2017-04-23T09:36:01.369Z,22.39
2017-04-23T09:36:42.201Z,22.58
2017-04-23T09:37:23.042Z,22.67
2017-04-23T09:38:03.801Z,22.85
2017-04-23T09:38:44.593Z,23.01
2017-04-23T09:39:25.268Z,23.09
2017-04-23T09:40:06.022Z,23.1
2017-04-23T09:40:46.806Z,23.2
2017-04-23T09:41:27.617Z,23.31
2017-04-23T09:42:08.387Z,23.36
2017-04-23T09:42:49.270Z,23.35
2017-04-23T09:43:30.001Z,23.27
2017-04-23T09:44:10.697Z,23.28
2017-04-23T09:44:51.393Z,23.39
2017-04-23T09:45:32.163Z,23.28
2017-04-23T09:46:12.951Z,23.43
2017-04-23T09:46:53.696Z,23.47
2017-04-23T09:47:34.429Z,23.33
2017-04-23T09:48:15.197Z,23.05
2017-04-23T09:48:55.904Z,22.83
2017-04-23T09:49:37.288Z,22.64
2017-04-23T09:50:18.057Z,22.62
2017-04-23T09:50:58.831Z,22.4
2017-04-23T09:51:39.644Z,22.45
2017-04-23T09:52:20.481Z,22.64
2017-04-23T09:53:01.234Z,22.7
2017-04-23T09:53:41.989Z,22.55
2017-04-23T09:54:22.698Z,22.51
2017-04-23T09:55:03.536Z,22.52
2017-04-23T09:55:44.219Z,22.4
2017-04-23T09:56:25.049Z,22.42
2017-04-23T09:57:05.875Z,22.51
2017-04-23T09:57:46.673Z,22.6
2017-04-23T09:58:27.439Z,22.77
2017-04-23T09:59:08.194Z,22.83
2017-04-23T09:59:48.941Z,22.82
2017-04-23T10:00:29.642Z,22.82
2017-04-23T10:01:10.407Z,22.79
2017-04-23T10:01:57.933Z,22.61
2017-04-23T10:02:38.722Z,22.68
2017-04-23T10:03:19.523Z,22.76
2017-04-23T10:04:00.287Z,22.85
2017-04-23T10:04:41.142Z,22.82
2017-04-23T10:05:22.005Z,23.05
2017-04-23T10:06:02.823Z,23
2017-04-23T10:06:43.664Z,22.97
2017-04-23T10:07:24.401Z,23.31
2017-04-23T10:08:05.116Z,23.23
2017-04-23T10:08:45.894Z,23.16
2017-04-23T10:09:26.564Z,22.77
2017-04-23T10:10:07.395Z,22.47
2017-04-23T10:10:48.057Z,22.52
2017-04-23T10:11:28.818Z,22.51
2017-04-23T10:12:09.603Z,22.21
2017-04-23T10:12:50.322Z,21.71
2017-04-23T10:13:31.215Z,21.71
2017-04-23T10:14:11.950Z,22
2017-04-23T10:14:52.725Z,22.33
2017-04-23T10:15:33.441Z,22.51
2017-04-23T10:16:14.228Z,22.43
2017-04-23T10:16:54.960Z,22.28
2017-04-23T10:17:35.714Z,22.3
2017-04-23T10:18:16.426Z,22.51
2017-04-23T10:18:57.181Z,22.67
2017-04-23T10:19:37.879Z,22.79
2017-04-23T10:20:18.759Z,22.75
2017-04-23T10:20:59.550Z,22.91
2017-04-23T10:21:40.308Z,23.09
2017-04-23T10:22:21.113Z,23.25
2017-04-23T10:23:01.887Z,23.17
2017-04-23T10:23:42.721Z,23.05
2017-04-23T10:24:23.514Z,22.86
2017-04-23T10:25:04.314Z,22.64
2017-04-23T10:25:45.082Z,22.67
2017-04-23T10:26:25.886Z,22.46
2017-04-23T10:27:06.630Z,22.35
2017-04-23T10:27:47.360Z,22.31
2017-04-23T10:28:28.119Z,22.2
2017-04-23T10:29:08.886Z,22.17
2017-04-23T10:29:49.642Z,21.75
2017-04-23T10:30:30.409Z,21.98
2017-04-23T10:31:11.195Z,22.12
2017-04-23T10:31:51.974Z,22.18
2017-04-23T10:32:32.810Z,22.37
2017-04-23T10:33:13.552Z,22.51
2017-04-23T10:33:54.238Z,22.73
2017-04-23T10:34:35.060Z,22.76
2017-04-23T10:35:15.847Z,22.64
2017-04-23T10:35:56.675Z,22.8
2017-04-23T10:36:37.434Z,22.68
2017-04-23T10:37:18.144Z,22.67
2017-04-23T10:37:58.880Z,22.72
2017-04-23T10:38:39.618Z,22.9
2017-04-23T10:39:20.379Z,22.98
2017-04-23T10:40:01.250Z,22.94
2017-04-23T10:40:42.024Z,22.97
2017-04-23T10:41:22.761Z,22.92
2017-04-23T10:42:03.583Z,22.54
2017-04-23T10:42:44.278Z,22.64
2017-04-23T10:43:25.058Z,22.42
2017-04-23T10:44:05.716Z,22.47
2017-04-23T10:44:46.464Z,22.79
2017-04-23T10:45:27.221Z,22.86
2017-04-23T10:46:07.905Z,22.8
2017-04-23T10:46:48.714Z,22.43
2017-04-23T10:47:29.456Z,22.25
2017-04-23T10:48:10.180Z,22.28
2017-04-23T10:48:51.019Z,22.02
2017-04-23T10:49:31.775Z,21.91
2017-04-23T10:50:12.473Z,21.82
2017-04-23T10:50:53.231Z,21.86
2017-04-23T10:51:34.006Z,21.8
2017-04-23T10:52:14.776Z,21.98
2017-04-23T10:52:55.601Z,21.84
2017-04-23T10:53:36.433Z,21.92
2017-04-23T10:54:17.213Z,21.9
2017-04-23T10:54:57.925Z,22
2017-04-23T10:55:38.626Z,21.67
2017-04-23T10:56:19.441Z,21.58
2017-04-23T10:57:00.215Z,21.67
2017-04-23T10:57:41.000Z,21.54
2017-04-23T10:58:21.762Z,21.5
2017-04-23T10:59:02.530Z,21.46
2017-04-23T10:59:43.271Z,21.43
2017-04-23T11:00:24.042Z,21.32
2017-04-23T11:01:04.815Z,21.43
2017-04-23T11:03:20.256Z,21.94
2017-04-23T11:04:01.121Z,22.14
2017-04-23T11:04:41.876Z,22.2
2017-04-23T11:05:22.570Z,22.45
2017-04-23T11:06:03.397Z,22.37
2017-04-23T11:06:44.161Z,22.35
2017-04-23T11:07:24.838Z,22.39
2017-04-23T11:08:05.599Z,22.12
2017-04-23T11:08:46.343Z,22.42
2017-04-23T11:09:27.096Z,22.54
2017-04-23T11:10:07.861Z,22.68
2017-04-23T11:10:48.581Z,22.77
2017-04-23T11:11:29.372Z,22.55
2017-04-23T11:12:10.121Z,22.7
2017-04-23T11:12:50.891Z,22.58
2017-04-23T11:13:31.691Z,22.8
2017-04-23T11:14:12.475Z,22.91
2017-04-23T11:14:53.253Z,23
2017-04-23T11:15:33.907Z,22.94
2017-04-23T11:16:14.675Z,23.09
2017-04-23T11:16:55.401Z,23.02
2017-04-23T11:17:36.113Z,22.83
2017-04-23T11:18:16.832Z,22.58
2017-04-23T11:18:57.532Z,22.6
2017-04-23T11:19:38.340Z,22.77
2017-04-23T11:20:19.129Z,22.83
2017-04-23T11:20:59.877Z,22.73
2017-04-23T11:21:40.691Z,22.61
2017-04-23T11:22:21.467Z,22.67
2017-04-23T11:23:02.235Z,22.57
2017-04-23T11:23:42.985Z,22.52
2017-04-23T11:24:23.761Z,22.73
2017-04-23T11:25:04.523Z,22.79
2017-04-23T11:25:45.275Z,22.46
2017-04-23T11:26:25.945Z,22.14
2017-04-23T11:27:06.744Z,22.12
2017-04-23T11:27:47.486Z,22.15
2017-04-23T11:28:28.255Z,22.02
2017-04-23T11:29:09.168Z,21.98
2017-04-23T11:29:49.905Z,21.71
2017-04-23T11:30:30.621Z,21.98
2017-04-23T11:31:11.390Z,22.14
2017-04-23T11:31:52.057Z,22.18
2017-04-23T11:32:32.800Z,22.3
2017-04-23T11:33:13.501Z,22.43
2017-04-23T11:33:54.265Z,22.46
2017-04-23T11:34:35.048Z,22.49
2017-04-23T11:35:15.806Z,22.43
2017-04-23T11:35:56.618Z,22.6
2017-04-23T11:36:37.276Z,22.58
2017-04-23T11:37:18.030Z,22.47
2017-04-23T11:37:58.719Z,22.42
2017-04-23T11:38:39.521Z,22.21
2017-04-23T11:39:20.284Z,22.07
2017-04-23T11:40:01.010Z,22.1
2017-04-23T11:40:41.793Z,22.15
2017-04-23T11:41:22.524Z,22.03
2017-04-23T11:42:03.329Z,22.09
2017-04-23T11:42:44.053Z,22.03
2017-04-23T11:43:24.887Z,22.25
2017-04-23T11:44:05.590Z,22.24
2017-04-23T11:44:46.395Z,22.28
2017-04-23T11:45:27.163Z,22.4
2017-04-23T11:46:07.952Z,22.31
2017-04-23T11:46:48.728Z,21.98
2017-04-23T11:47:29.490Z,21.68
2017-04-23T11:48:10.242Z,21.58
2017-04-23T11:48:51.042Z,21.62
2017-04-23T11:49:31.723Z,21.72
2017-04-23T11:50:12.506Z,21.72
2017-04-23T11:50:53.224Z,21.91
2017-04-23T11:51:33.970Z,21.94
2017-04-23T11:52:14.676Z,22.1
2017-04-23T11:52:55.416Z,22.27
2017-04-23T11:53:36.118Z,22.27
2017-04-23T11:54:16.966Z,22.22
2017-04-23T11:54:57.794Z,21.94
2017-04-23T11:55:38.585Z,21.56
2017-04-23T11:56:19.317Z,21.58
2017-04-23T11:57:00.100Z,21.77
2017-04-23T11:57:40.870Z,21.91
2017-04-23T11:58:21.643Z,21.98
2017-04-23T11:59:02.457Z,22.02
2017-04-23T11:59:43.175Z,21.88
2017-04-23T12:00:23.967Z,21.83
2017-04-23T12:01:04.854Z,21.99
2017-04-23T12:01:45.514Z,22.09
2017-04-23T12:02:26.352Z,22.12
2017-04-23T12:03:07.118Z,22.22
2017-04-23T12:03:47.879Z,21.91
2017-04-23T12:04:28.604Z,21.62
2017-04-23T12:05:09.314Z,21.47
2017-04-23T12:05:50.094Z,21.31
2017-04-23T12:06:30.865Z,21.27
2017-04-23T12:07:11.713Z,21.1
2017-04-23T12:07:52.507Z,20.95
2017-04-23T12:08:33.173Z,20.98
2017-04-23T12:09:13.938Z,21.01
2017-04-23T12:09:54.720Z,21.28
2017-04-23T12:10:35.519Z,21.38
2017-04-23T12:11:16.259Z,21.38
2017-04-23T12:11:57.049Z,21.4
2017-04-23T12:12:37.836Z,21.49
2017-04-23T12:13:18.579Z,21.4
2017-04-23T12:13:59.271Z,21.53
2017-04-23T12:14:40.068Z,21.58
2017-04-23T12:15:20.838Z,21.56
2017-04-23T12:16:01.748Z,21.53
2017-04-23T12:16:42.480Z,21.46
2017-04-23T12:17:23.302Z,21.28
2017-04-23T12:18:04.077Z,21.1
2017-04-23T12:18:44.857Z,21.13
2017-04-23T12:19:25.662Z,21.28
2017-04-23T12:20:06.400Z,21.4
2017-04-23T12:20:47.199Z,21.46
2017-04-23T12:21:27.949Z,21.58
2017-04-23T12:22:08.682Z,21.65
2017-04-23T12:22:49.487Z,21.74
2017-04-23T12:23:30.245Z,21.77
2017-04-23T12:24:10.962Z,21.88
2017-04-23T12:24:51.702Z,21.98
2017-04-23T12:25:32.541Z,21.84
2017-04-23T12:26:13.308Z,21.88
2017-04-23T12:26:54.023Z,21.58
2017-04-23T12:27:34.801Z,21.42
2017-04-23T12:28:15.511Z,21.43
2017-04-23T12:28:56.262Z,21.5
2017-04-23T12:29:36.981Z,21.46
2017-04-23T12:30:17.726Z,21.27
2017-04-23T12:30:58.590Z,21.27
2017-04-23T12:31:39.376Z,21.43
2017-04-23T12:32:20.180Z,21.46
2017-04-23T12:33:00.915Z,21.61
2017-04-23T12:33:41.722Z,21.68
2017-04-23T12:34:22.456Z,21.64
2017-04-23T12:35:03.198Z,21.69
2017-04-23T12:35:43.963Z,21.56
2017-04-23T12:36:24.717Z,21.68
2017-04-23T12:37:05.486Z,21.69
2017-04-23T12:37:46.225Z,21.61
2017-04-23T12:38:27.014Z,21.71
2017-04-23T12:39:07.795Z,21.77
2017-04-23T12:39:48.517Z,21.72
2017-04-23T12:40:29.422Z,21.72
2017-04-23T12:41:10.159Z,21.86
2017-04-23T12:41:50.899Z,21.79
2017-04-23T12:42:31.695Z,21.8
2017-04-23T12:43:12.469Z,21.94
2017-04-23T12:43:53.215Z,21.84
2017-04-23T12:44:33.909Z,21.82
2017-04-23T12:45:14.641Z,21.86
2017-04-23T12:45:55.413Z,21.84
2017-04-23T12:46:36.139Z,21.79
2017-04-23T12:47:16.907Z,21.82
2017-04-23T12:47:57.712Z,21.8
2017-04-23T12:48:38.470Z,21.86
2017-04-23T12:49:19.228Z,21.92
2017-04-23T12:50:00.064Z,21.79
2017-04-23T12:50:40.906Z,21.8
2017-04-23T12:51:21.558Z,21.86
2017-04-23T12:52:02.269Z,21.83
2017-04-23T12:52:43.013Z,21.82
2017-04-23T12:53:23.785Z,21.96
2017-04-23T12:54:04.623Z,21.9
2017-04-23T12:54:45.390Z,21.8
2017-04-23T12:55:26.227Z,21.64
2017-04-23T12:56:07.022Z,21.35
2017-04-23T12:56:47.757Z,21.13
2017-04-23T12:57:28.534Z,20.82
2017-04-23T12:58:09.284Z,20.91
2017-04-23T12:58:50.098Z,20.98
2017-04-23T12:59:30.870Z,21.16
2017-04-23T13:00:11.657Z,21.19
2017-04-23T13:00:52.459Z,21.19
2017-04-23T13:01:33.197Z,21.07
2017-04-23T13:02:13.884Z,21.07
2017-04-23T13:02:54.622Z,21.07
2017-04-23T13:03:35.420Z,21.1
2017-04-23T13:04:16.203Z,21.19
2017-04-23T13:04:57.011Z,21.22
2017-04-23T13:05:37.742Z,21.29
2017-04-23T13:06:18.480Z,21.4
2017-04-23T13:06:59.228Z,21.4
2017-04-23T13:07:39.968Z,21.28
2017-04-23T13:08:20.814Z,21.42
2017-04-23T13:09:01.569Z,21.4
2017-04-23T13:09:42.402Z,21.4
2017-04-23T13:10:23.153Z,21.46
2017-04-23T13:11:03.988Z,21.42
2017-04-23T13:11:44.758Z,21.17
2017-04-23T13:12:25.557Z,21.06
2017-04-23T13:13:06.316Z,21.03
2017-04-23T13:13:47.168Z,20.95
2017-04-23T13:14:27.875Z,20.87
2017-04-23T13:15:08.616Z,20.98
2017-04-23T13:15:49.899Z,21.03
2017-04-23T13:16:30.168Z,21.07
2017-04-23T13:17:11.047Z,21.03
2017-04-23T13:17:51.828Z,20.95
2017-04-23T13:18:32.589Z,21.01
2017-04-23T13:19:13.304Z,21.12
2017-04-23T13:19:54.121Z,21.16
2017-04-23T13:20:34.861Z,21.27
2017-04-23T13:21:15.659Z,21.28
2017-04-23T13:21:56.381Z,21.38
2017-04-23T13:22:37.137Z,21.32
2017-04-23T13:23:17.895Z,21.03
2017-04-23T13:23:58.643Z,20.91
2017-04-23T13:24:39.366Z,20.99
2017-04-23T13:25:20.096Z,20.89
2017-04-23T13:26:00.891Z,20.99
2017-04-23T13:26:41.650Z,20.89
2017-04-23T13:27:22.433Z,20.94
2017-04-23T13:28:03.258Z,20.77
2017-04-23T13:28:44.071Z,20.85
2017-04-23T13:29:24.847Z,20.85
2017-04-23T13:30:05.591Z,20.88
2017-04-23T13:30:46.346Z,21.03
2017-04-23T13:31:27.114Z,20.95
2017-04-23T13:32:07.851Z,21.09
2017-04-23T13:32:48.579Z,21.09
2017-04-23T13:33:29.286Z,21.19
2017-04-23T13:34:10.026Z,21.31
2017-04-23T13:34:50.755Z,21.42
2017-04-23T13:35:31.448Z,21.46
2017-04-23T13:36:12.190Z,21.42
2017-04-23T13:36:52.979Z,21.44
2017-04-23T13:37:33.700Z,21.58
2017-04-23T13:38:14.462Z,21.62
2017-04-23T13:38:55.211Z,21.53
2017-04-23T13:39:35.912Z,21.62
2017-04-23T13:40:16.726Z,21.61
2017-04-23T13:40:57.491Z,21.61
2017-04-23T13:41:38.179Z,21.72
2017-04-23T13:42:18.960Z,21.68
2017-04-23T13:42:59.788Z,21.75
2017-04-23T13:43:40.587Z,21.75
2017-04-23T13:44:21.387Z,21.75
2017-04-23T13:45:02.186Z,21.79
2017-04-23T13:45:42.985Z,21.75
2017-04-23T13:46:23.797Z,21.79
2017-04-23T13:47:04.550Z,21.82
2017-04-23T13:47:45.323Z,21.84
2017-04-23T13:48:26.154Z,21.79
2017-04-23T13:49:06.834Z,21.79
2017-04-23T13:49:47.599Z,21.94
2017-04-23T13:50:28.347Z,21.99
2017-04-23T13:51:09.112Z,21.9
2017-04-23T13:51:49.894Z,21.98
2017-04-23T13:52:30.619Z,21.88
2017-04-23T13:53:11.381Z,21.98
2017-04-23T13:53:52.170Z,21.91
2017-04-23T13:54:32.877Z,21.9
2017-04-23T13:55:13.589Z,21.96
2017-04-23T13:55:54.939Z,21.96
2017-04-23T13:56:35.083Z,21.99
2017-04-23T13:57:15.893Z,21.98
2017-04-23T13:57:56.681Z,21.92
2017-04-23T13:58:37.427Z,21.98
2017-04-23T13:59:18.212Z,21.99
2017-04-23T13:59:58.990Z,22
2017-04-23T14:00:39.728Z,21.96
2017-04-23T14:01:20.536Z,21.91
2017-04-23T14:02:01.345Z,22.02
2017-04-23T14:02:42.110Z,21.9
2017-04-23T14:03:22.863Z,21.91
2017-04-23T14:04:03.674Z,22.02
2017-04-23T14:04:44.415Z,22
2017-04-23T14:05:25.103Z,22.02
2017-04-23T14:06:05.877Z,21.96
2017-04-23T14:06:46.569Z,21.98
2017-04-23T14:07:27.349Z,22
2017-04-23T14:08:08.196Z,22.02
2017-04-23T14:08:48.905Z,22.03
2017-04-23T14:09:29.638Z,21.99
2017-04-23T14:10:10.353Z,21.98
2017-04-23T14:10:51.231Z,22
2017-04-23T14:11:31.975Z,21.98
2017-04-23T14:12:12.731Z,22.06
2017-04-23T14:12:53.538Z,22.03
2017-04-23T14:13:34.213Z,22.06
2017-04-23T14:14:15.031Z,22.05
2017-04-23T14:14:55.779Z,22.07
2017-04-23T14:15:36.541Z,22.07
2017-04-23T14:16:17.282Z,22.09
2017-04-23T14:16:58.034Z,22.1
2017-04-23T14:17:38.785Z,22.07
2017-04-23T14:18:19.533Z,22.12
2017-04-23T14:19:00.325Z,22.07
2017-04-23T14:19:41.037Z,22.18
2017-04-23T14:20:21.786Z,22.12
2017-04-23T14:21:02.558Z,22.1
2017-04-23T14:21:43.271Z,22.15
2017-04-23T14:22:24.113Z,22.1
2017-04-23T14:23:04.862Z,22.12
2017-04-23T14:23:45.626Z,22.14
2017-04-23T14:24:26.371Z,22.15
2017-04-23T14:25:07.110Z,22.15
2017-04-23T14:25:47.808Z,22.18
2017-04-23T14:26:28.606Z,22.12
2017-04-23T14:27:09.370Z,22.18
2017-04-23T14:27:50.171Z,22.12
2017-04-23T14:28:30.889Z,22.12
2017-04-23T14:29:11.618Z,22.17
2017-04-23T14:29:52.412Z,22.1
2017-04-23T14:30:33.131Z,22.17
2017-04-23T14:31:13.811Z,22.09
2017-04-23T14:31:54.520Z,22.12
2017-04-23T14:32:35.348Z,22.14
2017-04-23T14:33:16.167Z,22.12
2017-04-23T14:33:56.997Z,22.1
2017-04-23T14:34:37.746Z,22.07
2017-04-23T14:35:18.501Z,22.09
2017-04-23T14:35:59.219Z,22.05
2017-04-23T14:36:39.919Z,22.14
2017-04-23T14:37:20.671Z,22.14
2017-04-23T14:38:01.427Z,22.15
2017-04-23T14:38:42.156Z,22.15
2017-04-23T14:39:22.939Z,22.12
2017-04-23T14:40:03.703Z,22.14
2017-04-23T14:40:44.469Z,22.12
2017-04-23T14:41:25.180Z,22.15
2017-04-23T14:42:05.936Z,22.15
2017-04-23T14:42:46.669Z,22.12
2017-04-23T14:43:27.372Z,22.14
2017-04-23T14:44:08.154Z,22.1
2017-04-23T14:44:48.912Z,22.15
2017-04-23T14:45:29.616Z,22.14
2017-04-23T14:46:10.403Z,22.17
2017-04-23T14:46:51.106Z,22.14
2017-04-23T14:47:31.914Z,22.14
2017-04-23T14:48:12.792Z,22.15
2017-04-23T14:48:53.519Z,22.2
2017-04-23T14:49:34.326Z,22.17
2017-04-23T14:50:15.039Z,22.21
2017-04-23T14:50:55.742Z,22.2
2017-04-23T14:51:36.571Z,22.18
2017-04-23T14:52:17.323Z,22.14
2017-04-23T14:52:58.015Z,22.14
2017-04-23T14:53:38.733Z,22.18
2017-04-23T14:54:19.572Z,22.2
2017-04-23T14:55:00.426Z,22.18
2017-04-23T14:55:41.133Z,22.25
2017-04-23T14:56:21.913Z,22.21
2017-04-23T14:57:02.598Z,22.18
2017-04-23T14:57:43.342Z,22.25
2017-04-23T14:58:24.127Z,22.22
2017-04-23T14:59:04.880Z,22.21
2017-04-23T14:59:45.587Z,22.24
2017-04-23T15:00:26.336Z,22.2
2017-04-23T15:01:07.064Z,22.21
2017-04-23T15:01:47.840Z,22.2
2017-04-23T15:02:28.673Z,22.14
2017-04-23T15:03:09.504Z,22.14
2017-04-23T15:03:50.263Z,22.14
2017-04-23T15:04:30.975Z,22.1
2017-04-23T15:05:11.746Z,22.18
2017-04-23T15:05:52.567Z,22.17
2017-04-23T15:06:33.224Z,22.17
2017-04-23T15:07:14.046Z,22.17
2017-04-23T15:07:54.720Z,22.18
2017-04-23T15:08:35.516Z,22.15
2017-04-23T15:09:16.348Z,22.17
2017-04-23T15:09:57.099Z,22.1
2017-04-23T15:10:37.833Z,22.09
2017-04-23T15:11:18.563Z,22.1
2017-04-23T15:11:59.332Z,22.09
2017-04-23T15:12:40.058Z,22.1
2017-04-23T15:13:20.822Z,22.1
2017-04-23T15:14:01.616Z,22.03
2017-04-23T15:14:42.419Z,22.1
2017-04-23T15:15:23.144Z,21.94
2017-04-23T15:16:03.993Z,22.02
2017-04-23T15:16:44.772Z,22.07
2017-04-23T15:17:25.522Z,22.02
2017-04-23T15:18:06.311Z,21.92
2017-04-23T15:18:47.104Z,21.98
2017-04-23T15:19:27.931Z,21.92
2017-04-23T15:20:08.695Z,21.98
2017-04-23T15:20:49.415Z,22.03
2017-04-23T15:21:30.198Z,22.03
2017-04-23T15:22:10.947Z,22.1
2017-04-23T15:22:51.618Z,22.02
2017-04-23T15:23:32.377Z,22.07
2017-04-23T15:24:13.229Z,22.05
2017-04-23T15:24:53.977Z,22.05
2017-04-23T15:25:34.673Z,22
2017-04-23T15:26:15.470Z,21.96
2017-04-23T15:26:56.312Z,21.91
2017-04-23T15:27:37.011Z,21.99
2017-04-23T15:28:17.829Z,21.91
2017-04-23T15:28:58.538Z,22.03
2017-04-23T15:29:39.347Z,22.06
2017-04-23T15:30:20.082Z,22.03
2017-04-23T15:31:00.858Z,21.92
2017-04-23T15:31:41.585Z,22
2017-04-23T15:32:31.128Z,21.88
2017-04-23T15:33:12.183Z,21.96
2017-04-23T15:33:55.340Z,21.91
2017-04-23T15:34:36.172Z,21.96
2017-04-23T15:35:16.919Z,21.98
2017-04-23T15:35:57.653Z,21.94
2017-04-23T15:36:38.614Z,21.98
2017-04-23T15:37:19.382Z,22
2017-04-23T15:38:00.085Z,21.99
2017-04-23T15:38:40.791Z,21.99
2017-04-23T15:39:21.598Z,21.94
2017-04-23T15:40:03.879Z,21.92
2017-04-23T15:40:45.439Z,22.05
2017-04-23T15:41:26.203Z,21.98
2017-04-23T15:42:06.999Z,22.02
2017-04-23T15:42:47.741Z,21.96
2017-04-23T15:43:28.442Z,21.91
2017-04-23T15:44:09.269Z,21.94
2017-04-23T15:44:50.037Z,21.91
2017-04-23T15:45:30.780Z,21.96
2017-04-23T15:46:11.610Z,21.98
2017-04-23T15:46:52.333Z,21.96
2017-04-23T15:47:33.096Z,21.91
2017-04-23T15:48:13.932Z,21.94
2017-04-23T15:48:54.645Z,22.05
2017-04-23T15:49:35.472Z,21.99
2017-04-23T15:50:16.190Z,21.96
2017-04-23T15:50:56.998Z,21.91
2017-04-23T15:51:37.746Z,22.02
2017-04-23T15:52:18.508Z,21.94
2017-04-23T15:52:59.322Z,21.98
2017-04-23T15:53:40.078Z,21.91
2017-04-23T15:54:20.797Z,22.03
2017-04-23T15:55:01.526Z,21.98
2017-04-23T15:55:42.272Z,21.99
2017-04-23T15:56:23.045Z,21.94
2017-04-23T15:57:03.804Z,21.88
2017-04-23T15:57:44.560Z,21.96
2017-04-23T15:58:25.316Z,21.96
2017-04-23T15:59:06.106Z,21.9
2017-04-23T15:59:46.863Z,21.92
2017-04-23T16:00:27.670Z,21.92
2017-04-23T16:01:08.389Z,21.88
2017-04-23T16:01:49.132Z,22.02
2017-04-23T16:02:29.785Z,22.03
2017-04-23T16:04:09.740Z,21.98
2017-04-23T16:04:50.572Z,21.9
2017-04-23T16:05:31.339Z,21.9
2017-04-23T16:06:12.120Z,21.88
2017-04-23T16:06:52.768Z,21.92
2017-04-23T16:07:33.530Z,21.79
2017-04-23T16:08:14.227Z,21.77
2017-04-23T16:08:54.984Z,21.92
2017-04-23T16:09:35.809Z,21.96
2017-04-23T16:10:16.608Z,21.94
2017-04-23T16:10:57.417Z,21.82
2017-04-23T16:11:38.100Z,21.91
2017-04-23T16:12:18.959Z,21.88
2017-04-23T16:12:59.661Z,21.84
2017-04-23T16:13:40.360Z,21.92
2017-04-23T16:14:21.113Z,21.84
2017-04-23T16:15:01.915Z,21.86
2017-04-23T16:15:42.661Z,21.92
2017-04-23T16:16:23.423Z,21.91
2017-04-23T16:17:04.163Z,21.91
2017-04-23T16:17:44.890Z,21.84
2017-04-23T16:18:25.636Z,21.83
2017-04-23T16:19:06.327Z,21.86
2017-04-23T16:19:47.090Z,21.88
2017-04-23T16:20:27.810Z,21.8
2017-04-23T16:21:08.636Z,21.86
2017-04-23T16:21:49.387Z,21.88
2017-04-23T16:22:30.095Z,21.86
2017-04-23T16:23:10.816Z,21.84
2017-04-23T16:23:51.589Z,21.83
2017-04-23T16:24:32.365Z,21.82
2017-04-23T16:25:13.110Z,21.83
2017-04-23T16:25:53.892Z,21.79
2017-04-23T16:26:34.653Z,21.8
2017-04-23T16:27:15.440Z,21.79
2017-04-23T16:27:56.253Z,21.79
2017-04-23T16:28:36.983Z,21.79
2017-04-23T16:29:17.807Z,21.75
2017-04-23T16:29:58.559Z,21.79
2017-04-23T16:30:39.354Z,21.79
2017-04-23T16:31:20.056Z,21.72
2017-04-23T16:32:00.822Z,21.82
2017-04-23T16:32:41.713Z,21.77
2017-04-23T16:33:25.137Z,21.72
2017-04-23T16:34:05.877Z,21.72
2017-04-23T16:34:46.652Z,21.75
2017-04-23T16:35:27.510Z,21.8
2017-04-23T16:36:08.303Z,21.75
2017-04-23T16:36:49.062Z,21.8
2017-04-23T16:37:29.774Z,21.68
2017-04-23T16:38:10.547Z,21.77
2017-04-23T16:38:51.302Z,21.83
2017-04-23T16:39:32.088Z,21.72
2017-04-23T16:40:12.858Z,21.74
2017-04-23T16:40:53.628Z,21.71
2017-04-23T16:41:34.512Z,21.74
2017-04-23T16:42:15.204Z,21.68
2017-04-23T16:42:56.046Z,21.71
2017-04-23T16:43:36.840Z,21.74
2017-04-23T16:44:17.628Z,21.68
2017-04-23T16:44:58.435Z,21.67
2017-04-23T16:45:39.128Z,21.71
2017-04-23T16:46:19.968Z,21.68
2017-04-23T16:47:00.677Z,21.68
2017-04-23T16:47:41.398Z,21.69
2017-04-23T16:48:22.188Z,21.71
2017-04-23T16:49:02.981Z,21.71
2017-04-23T16:49:43.743Z,21.67
2017-04-23T16:50:24.520Z,21.68
2017-04-23T16:51:05.228Z,21.67
2017-04-23T16:51:46.078Z,21.72
2017-04-23T16:52:26.857Z,21.65
2017-04-23T16:53:07.550Z,21.69
2017-04-23T16:53:48.391Z,21.67
2017-04-23T16:54:29.108Z,21.64
2017-04-23T16:55:09.963Z,21.59
2017-04-23T16:55:50.664Z,21.75
2017-04-23T16:56:31.429Z,21.72
2017-04-23T16:57:12.234Z,21.59
2017-04-23T16:57:52.963Z,21.58
2017-04-23T16:58:33.705Z,21.67
2017-04-23T16:59:14.499Z,21.58
2017-04-23T16:59:55.357Z,21.58
2017-04-23T17:00:36.148Z,21.58
2017-04-23T17:01:16.806Z,21.56
2017-04-23T17:01:57.587Z,21.59
2017-04-23T17:02:38.282Z,21.56
2017-04-23T17:03:19.566Z,21.59
2017-04-23T17:04:00.396Z,21.58
2017-04-23T17:04:41.145Z,21.52
2017-04-23T17:05:21.903Z,21.58
2017-04-23T17:06:02.618Z,21.61
2017-04-23T17:06:43.432Z,21.61
2017-04-23T17:07:24.227Z,21.64
2017-04-23T17:08:05.093Z,21.64
2017-04-23T17:08:45.906Z,21.65
2017-04-23T17:09:26.681Z,21.59
2017-04-23T17:10:07.426Z,21.59
2017-04-23T17:10:48.150Z,21.54
2017-04-23T17:11:28.903Z,21.54
2017-04-23T17:12:09.651Z,21.54
2017-04-23T17:12:50.418Z,21.56
2017-04-23T17:13:31.203Z,21.56
2017-04-23T17:14:12.039Z,21.56
2017-04-23T17:14:52.853Z,21.54
2017-04-23T17:15:33.614Z,21.5
2017-04-23T17:16:14.316Z,21.54
2017-04-23T17:16:55.054Z,21.62
2017-04-23T17:17:35.768Z,21.56
2017-04-23T17:18:16.516Z,21.5
2017-04-23T17:18:57.259Z,21.53
2017-04-23T17:19:37.980Z,21.59
2017-04-23T17:20:18.760Z,21.58
2017-04-23T17:20:59.501Z,21.49
2017-04-23T17:21:40.284Z,21.61
2017-04-23T17:22:21.078Z,21.56
2017-04-23T17:23:01.806Z,21.56
2017-04-23T17:23:42.639Z,21.58
2017-04-23T17:24:23.376Z,21.58
2017-04-23T17:25:04.106Z,21.44
2017-04-23T17:25:44.845Z,21.5
2017-04-23T17:26:25.582Z,21.44
2017-04-23T17:27:06.418Z,21.43
2017-04-23T17:27:47.209Z,21.43
2017-04-23T17:28:27.950Z,21.52
2017-04-23T17:29:08.766Z,21.52
2017-04-23T17:29:49.530Z,21.49
2017-04-23T17:30:30.327Z,21.49
2017-04-23T17:31:11.068Z,21.47
2017-04-23T17:31:51.911Z,21.53
2017-04-23T17:32:32.659Z,21.49
2017-04-23T17:34:48.237Z,21.5
2017-04-23T17:35:28.976Z,21.52
2017-04-23T17:36:09.710Z,21.49
2017-04-23T17:36:50.468Z,21.49
2017-04-23T17:37:31.257Z,21.5
2017-04-23T17:38:12.016Z,21.46
2017-04-23T17:38:52.795Z,21.49
2017-04-23T17:39:33.534Z,21.56
2017-04-23T17:40:14.328Z,21.5
2017-04-23T17:40:55.086Z,21.47
2017-04-23T17:41:35.753Z,21.43
2017-04-23T17:42:16.534Z,21.53
2017-04-23T17:42:57.288Z,21.5
2017-04-23T17:43:38.065Z,21.46
2017-04-23T17:44:18.735Z,21.49
2017-04-23T17:44:59.521Z,21.52
2017-04-23T17:45:40.290Z,21.46
2017-04-23T17:46:21.077Z,21.46
2017-04-23T17:47:01.838Z,21.49
2017-04-23T17:47:42.665Z,21.49
2017-04-23T17:48:23.443Z,21.49
2017-04-23T17:49:04.177Z,21.43
2017-04-23T17:49:44.976Z,21.47
2017-04-23T17:50:25.759Z,21.43
2017-04-23T17:51:06.550Z,21.43
2017-04-23T17:51:47.416Z,21.5
2017-04-23T17:52:28.177Z,21.53
2017-04-23T17:53:08.960Z,21.46
2017-04-23T17:53:49.678Z,21.46
2017-04-23T17:54:30.522Z,21.46
2017-04-23T17:55:11.270Z,21.52
2017-04-23T17:55:52.112Z,21.52
2017-04-23T17:56:32.791Z,21.46
2017-04-23T17:57:13.626Z,21.49
2017-04-23T17:57:54.365Z,21.38
2017-04-23T17:58:35.072Z,21.49
2017-04-23T17:59:15.951Z,21.44
2017-04-23T17:59:56.692Z,21.5
2017-04-23T18:00:37.445Z,21.43
2017-04-23T18:01:18.169Z,21.43
2017-04-23T18:01:58.974Z,21.42
2017-04-23T18:02:39.816Z,21.44
2017-04-23T18:03:20.606Z,21.42
2017-04-23T18:04:01.403Z,21.43
2017-04-23T18:04:42.194Z,21.38
2017-04-23T18:05:22.899Z,21.42
2017-04-23T18:06:03.674Z,21.43
2017-04-23T18:06:44.401Z,21.4
2017-04-23T18:07:25.237Z,21.46
2017-04-23T18:08:06.047Z,21.42
2017-04-23T18:08:46.839Z,21.42
2017-04-23T18:09:27.606Z,21.42
2017-04-23T18:10:08.375Z,21.43
2017-04-23T18:10:49.161Z,21.46
2017-04-23T18:11:29.955Z,21.43
2017-04-23T18:12:10.686Z,21.42
2017-04-23T18:12:51.451Z,21.46
2017-04-23T18:13:32.224Z,21.34
2017-04-23T18:14:13.019Z,21.34
2017-04-23T18:14:53.784Z,21.38
2017-04-23T18:15:34.559Z,21.38
2017-04-23T18:16:15.282Z,21.43
2017-04-23T18:16:56.137Z,21.4
2017-04-23T18:17:36.953Z,21.28
2017-04-23T18:18:17.663Z,21.37
2017-04-23T18:18:58.491Z,21.37
2017-04-23T18:19:39.197Z,21.42
2017-04-23T18:20:19.928Z,21.37
2017-04-23T18:21:00.664Z,21.38
2017-04-23T18:21:41.371Z,21.42
2017-04-23T18:22:22.199Z,21.32
2017-04-23T18:23:03.050Z,21.27
2017-04-23T18:23:43.802Z,21.32
2017-04-23T18:24:24.613Z,21.43